sensor_id;sensor_type;location;lat;lon;timestamp;pressure;altitude;pressure_sealevel;temperature;humidity
31403;BME280;18039;52.188;21.024;2023-01-09T00:01:27;76819.94;;;-141.45;100.00
31403;BME280;18039;52.188;21.024;2023-01-09T00:03:55;76813.84;;;-141.45;100.00
31403;BME280;18039;52.188;21.024;2023-01-09T00:06:22;76815.88;;;-141.45;100.00
31403;BME280;18039;52.188;21.024;2023-01-09T00:08:49;76811.81;;;-141.45;100.00
31403;BME280;18039;52.188;21.024;2023-01-09T00:11:17;76815.88;;;-141.45;100.00
31403;BME280;18039;52.188;21.024;2023-01-09T00:13:44;76815.88;;;-141.45;100.00
31403;BME280;18039;52.188;21.024;2023-01-09T00:16:30;76809.81;;;-141.45;100.00
31403;BME280;18039;52.188;21.024;2023-01-09T00:18:58;76811.81;;;-141.45;100.00
31403;BME280;18039;52.188;21.024;2023-01-09T00:21:26;76799.66;;;-141.45;100.00
31403;BME280;18039;52.188;21.024;2023-01-09T00:23:54;76799.66;;;-141.45;100.00
31403;BME280;18039;52.188;21.024;2023-01-09T00:26:21;76811.81;;;-141.45;100.00
31403;BME280;18039;52.188;21.024;2023-01-09T00:28:49;76813.84;;;-141.45;100.00
31403;BME280;18039;52.188;21.024;2023-01-09T00:31:17;76824.00;;;-141.45;100.00
31403;BME280;18039;52.188;21.024;2023-01-09T00:33:54;76815.88;;;-141.45;100.00
31403;BME280;18039;52.188;21.024;2023-01-09T00:36:21;76803.72;;;-141.45;100.00
31403;BME280;18039;52.188;21.024;2023-01-09T00:38:49;76811.81;;;-141.45;100.00
31403;BME280;18039;52.188;21.024;2023-01-09T00:41:25;76815.88;;;-141.45;100.00
31403;BME280;18039;52.188;21.024;2023-01-09T00:43:57;76803.72;;;-141.45;100.00
31403;BME280;18039;52.188;21.024;2023-01-09T00:46:29;76795.59;;;-141.45;100.00
31403;BME280;18039;52.188;21.024;2023-01-09T00:48:58;76781.41;;;-141.45;100.00
31403;BME280;18039;52.188;21.024;2023-01-09T00:51:25;76801.69;;;-141.45;100.00
31403;BME280;18039;52.188;21.024;2023-01-09T00:53:53;76803.72;;;-141.45;100.00
31403;BME280;18039;52.188;21.024;2023-01-09T00:56:21;76811.81;;;-141.45;100.00
31403;BME280;18039;52.188;21.024;2023-01-09T00:58:50;76807.78;;;-141.45;100.00
31403;BME280;18039;52.188;21.024;2023-01-09T01:01:18;76799.66;;;-141.45;100.00
31403;BME280;18039;52.188;21.024;2023-01-09T01:03:45;76791.56;;;-141.45;100.00
31403;BME280;18039;52.188;21.024;2023-01-09T01:06:12;76791.56;;;-141.45;100.00
31403;BME280;18039;52.188;21.024;2023-01-09T01:08:58;76791.56;;;-141.45;100.00
31403;BME280;18039;52.188;21.024;2023-01-09T01:11:25;76791.56;;;-141.45;100.00
31403;BME280;18039;52.188;21.024;2023-01-09T01:13:52;76783.44;;;-141.45;100.00
31403;BME280;18039;52.188;21.024;2023-01-09T01:16:19;76775.34;;;-141.45;100.00
31403;BME280;18039;52.188;21.024;2023-01-09T01:18:47;76765.19;;;-141.45;100.00
31403;BME280;18039;52.188;21.024;2023-01-09T01:21:14;76763.16;;;-141.45;100.00
31403;BME280;18039;52.188;21.024;2023-01-09T01:23:42;76775.34;;;-141.45;100.00
31403;BME280;18039;52.188;21.024;2023-01-09T01:26:12;76773.31;;;-141.45;100.00
31403;BME280;18039;52.188;21.024;2023-01-09T01:28:40;76771.28;;;-141.45;100.00
31403;BME280;18039;52.188;21.024;2023-01-09T01:31:14;76767.22;;;-141.45;100.00
31403;BME280;18039;52.188;21.024;2023-01-09T01:33:42;76767.22;;;-141.45;100.00
31403;BME280;18039;52.188;21.024;2023-01-09T01:36:09;76767.22;;;-141.45;100.00
31403;BME280;18039;52.188;21.024;2023-01-09T01:38:37;76755.06;;;-141.45;100.00
31403;BME280;18039;52.188;21.024;2023-01-09T01:41:04;76755.06;;;-141.45;100.00
31403;BME280;18039;52.188;21.024;2023-01-09T01:43:54;76767.22;;;-141.45;100.00
31403;BME280;18039;52.188;21.024;2023-01-09T01:46:23;76763.16;;;-141.45;100.00
31403;BME280;18039;52.188;21.024;2023-01-09T01:48:59;76751.00;;;-141.45;100.00
31403;BME280;18039;52.188;21.024;2023-01-09T01:51:30;76757.09;;;-141.45;100.00
31403;BME280;18039;52.188;21.024;2023-01-09T01:54:01;76759.13;;;-141.45;100.00
31403;BME280;18039;52.188;21.024;2023-01-09T01:56:34;76759.13;;;-141.45;100.00
31403;BME280;18039;52.188;21.024;2023-01-09T01:59:16;76763.16;;;-141.45;100.00
31403;BME280;18039;52.188;21.024;2023-01-09T02:01:56;76763.16;;;-141.45;100.00
31403;BME280;18039;52.188;21.024;2023-01-09T02:04:24;76763.16;;;-141.45;100.00
31403;BME280;18039;52.188;21.024;2023-01-09T02:06:53;76763.16;;;-141.45;100.00
31403;BME280;18039;52.188;21.024;2023-01-09T02:09:22;76759.13;;;-141.45;100.00
31403;BME280;18039;52.188;21.024;2023-01-09T02:11:54;76763.16;;;-141.45;100.00
31403;BME280;18039;52.188;21.024;2023-01-09T02:14:28;76759.13;;;-141.45;100.00
31403;BME280;18039;52.188;21.024;2023-01-09T02:17:28;76742.91;;;-141.45;100.00
31403;BME280;18039;52.188;21.024;2023-01-09T02:31:43;76726.69;;;-141.45;100.00
31403;BME280;18039;52.188;21.024;2023-01-09T02:42:21;76714.53;;;-141.45;100.00
31403;BME280;18039;52.188;21.024;2023-01-09T02:44:49;76714.53;;;-141.45;100.00
31403;BME280;18039;52.188;21.024;2023-01-09T02:49:55;76744.94;;;-141.45;100.00
31403;BME280;18039;52.188;21.024;2023-01-09T02:58:04;76726.69;;;-141.45;100.00
31403;BME280;18039;52.188;21.024;2023-01-09T03:00:59;76718.56;;;-141.45;100.00
31403;BME280;18039;52.188;21.024;2023-01-09T03:03:44;76722.63;;;-141.45;100.00
31403;BME280;18039;52.188;21.024;2023-01-09T03:09:04;76710.47;;;-141.45;100.00
31403;BME280;18039;52.188;21.024;2023-01-09T03:11:39;76702.34;;;-141.45;100.00
31403;BME280;18039;52.188;21.024;2023-01-09T03:14:12;76700.34;;;-141.45;100.00
31403;BME280;18039;52.188;21.024;2023-01-09T03:16:41;76706.41;;;-141.45;100.00
31403;BME280;18039;52.188;21.024;2023-01-09T03:19:15;76706.41;;;-141.45;100.00
31403;BME280;18039;52.188;21.024;2023-01-09T03:21:44;76706.41;;;-141.45;100.00
31403;BME280;18039;52.188;21.024;2023-01-09T03:24:12;76706.41;;;-141.45;100.00
31403;BME280;18039;52.188;21.024;2023-01-09T03:26:39;76702.34;;;-141.45;100.00
31403;BME280;18039;52.188;21.024;2023-01-09T03:29:08;76702.34;;;-141.45;100.00
31403;BME280;18039;52.188;21.024;2023-01-09T03:31:35;76698.31;;;-141.45;100.00
31403;BME280;18039;52.188;21.024;2023-01-09T03:34:02;76704.38;;;-141.45;100.00
31403;BME280;18039;52.188;21.024;2023-01-09T03:36:29;76708.44;;;-141.45;100.00
31403;BME280;18039;52.188;21.024;2023-01-09T03:38:56;76730.75;;;-141.45;100.00
31403;BME280;18039;52.188;21.024;2023-01-09T03:41:23;76700.34;;;-141.45;100.00
31403;BME280;18039;52.188;21.024;2023-01-09T03:43:51;76692.22;;;-141.45;100.00
31403;BME280;18039;52.188;21.024;2023-01-09T03:46:18;76690.19;;;-141.45;100.00
31403;BME280;18039;52.188;21.024;2023-01-09T03:48:45;76678.03;;;-141.45;100.00
31403;BME280;18039;52.188;21.024;2023-01-09T03:51:12;76686.13;;;-141.45;100.00
31403;BME280;18039;52.188;21.024;2023-01-09T03:53:39;76682.09;;;-141.45;100.00
31403;BME280;18039;52.188;21.024;2023-01-09T03:56:06;76678.03;;;-141.45;100.00
31403;BME280;18039;52.188;21.024;2023-01-09T03:58:34;76669.94;;;-141.45;100.00
31403;BME280;18039;52.188;21.024;2023-01-09T04:01:02;76682.09;;;-141.45;100.00
31403;BME280;18039;52.188;21.024;2023-01-09T04:03:30;76694.25;;;-141.45;100.00
31403;BME280;18039;52.188;21.024;2023-01-09T04:05:57;76686.13;;;-141.45;100.00
31403;BME280;18039;52.188;21.024;2023-01-09T04:08:24;76682.09;;;-141.45;100.00
31403;BME280;18039;52.188;21.024;2023-01-09T04:10:51;76690.19;;;-141.45;100.00
31403;BME280;18039;52.188;21.024;2023-01-09T04:13:19;76686.13;;;-141.45;100.00
31403;BME280;18039;52.188;21.024;2023-01-09T04:15:46;76694.25;;;-141.45;100.00
31403;BME280;18039;52.188;21.024;2023-01-09T04:18:14;76690.19;;;-141.45;100.00
31403;BME280;18039;52.188;21.024;2023-01-09T04:20:59;76690.19;;;-141.45;100.00
31403;BME280;18039;52.188;21.024;2023-01-09T04:23:26;76686.13;;;-141.45;100.00
31403;BME280;18039;52.188;21.024;2023-01-09T04:25:53;76690.19;;;-141.45;100.00
31403;BME280;18039;52.188;21.024;2023-01-09T04:28:20;76684.13;;;-141.45;100.00
31403;BME280;18039;52.188;21.024;2023-01-09T04:30:48;76671.94;;;-141.45;100.00
31403;BME280;18039;52.188;21.024;2023-01-09T04:33:15;76678.03;;;-141.45;100.00
31403;BME280;18039;52.188;21.024;2023-01-09T04:35:42;76673.97;;;-141.45;100.00
31403;BME280;18039;52.188;21.024;2023-01-09T04:38:09;76669.94;;;-141.45;100.00
31403;BME280;18039;52.188;21.024;2023-01-09T04:40:36;76665.88;;;-141.45;100.00
31403;BME280;18039;52.188;21.024;2023-01-09T04:43:03;76661.81;;;-141.45;100.00
31403;BME280;18039;52.188;21.024;2023-01-09T04:45:30;76659.78;;;-141.45;100.00
31403;BME280;18039;52.188;21.024;2023-01-09T04:47:57;76655.72;;;-141.45;100.00
31403;BME280;18039;52.188;21.024;2023-01-09T04:50:24;76653.72;;;-141.45;100.00
31403;BME280;18039;52.188;21.024;2023-01-09T04:52:51;76647.63;;;-141.45;100.00
31403;BME280;18039;52.188;21.024;2023-01-09T04:55:18;76647.63;;;-141.45;100.00
31403;BME280;18039;52.188;21.024;2023-01-09T04:57:45;76645.59;;;-141.45;100.00
31403;BME280;18039;52.188;21.024;2023-01-09T05:00:13;76649.66;;;-141.45;100.00
31403;BME280;18039;52.188;21.024;2023-01-09T05:02:40;76649.66;;;-141.45;100.00
31403;BME280;18039;52.188;21.024;2023-01-09T05:05:09;76637.50;;;-141.45;100.00
31403;BME280;18039;52.188;21.024;2023-01-09T05:07:39;76631.41;;;-141.45;100.00
31403;BME280;18039;52.188;21.024;2023-01-09T05:10:07;76641.53;;;-141.45;100.00
31403;BME280;18039;52.188;21.024;2023-01-09T05:12:35;76633.44;;;-141.45;100.00
31403;BME280;18039;52.188;21.024;2023-01-09T05:15:03;76629.38;;;-141.45;100.00
31403;BME280;18039;52.188;21.024;2023-01-09T05:17:31;76621.28;;;-141.45;100.00
31403;BME280;18039;52.188;21.024;2023-01-09T05:19:58;76613.16;;;-141.45;100.00
31403;BME280;18039;52.188;21.024;2023-01-09T05:22:27;76617.22;;;-141.45;100.00
31403;BME280;18039;52.188;21.024;2023-01-09T05:24:54;76607.09;;;-141.45;100.00
31403;BME280;18039;52.188;21.024;2023-01-09T05:27:21;76613.16;;;-141.45;100.00
31403;BME280;18039;52.188;21.024;2023-01-09T05:29:48;76611.13;;;-141.45;100.00
31403;BME280;18039;52.188;21.024;2023-01-09T05:32:15;76605.06;;;-141.45;100.00
31403;BME280;18039;52.188;21.024;2023-01-09T05:34:42;76596.94;;;-141.45;100.00
31403;BME280;18039;52.188;21.024;2023-01-09T05:37:10;76588.84;;;-141.45;100.00
31403;BME280;18039;52.188;21.024;2023-01-09T05:39:37;76588.84;;;-141.45;100.00
31403;BME280;18039;52.188;21.024;2023-01-09T05:42:04;76596.94;;;-141.45;100.00
31403;BME280;18039;52.188;21.024;2023-01-09T05:44:31;76588.84;;;-141.45;100.00
31403;BME280;18039;52.188;21.024;2023-01-09T05:46:58;76590.88;;;-141.45;100.00
31403;BME280;18039;52.188;21.024;2023-01-09T05:49:28;76584.78;;;-141.45;100.00
31403;BME280;18039;52.188;21.024;2023-01-09T05:51:55;76576.69;;;-141.45;100.00
31403;BME280;18039;52.188;21.024;2023-01-09T05:54:22;76576.69;;;-141.45;100.00
31403;BME280;18039;52.188;21.024;2023-01-09T05:56:49;76584.78;;;-141.45;100.00
31403;BME280;18039;52.188;21.024;2023-01-09T05:59:16;76576.69;;;-141.45;100.00
31403;BME280;18039;52.188;21.024;2023-01-09T06:01:43;76568.56;;;-141.45;100.00
31403;BME280;18039;52.188;21.024;2023-01-09T06:04:11;76562.50;;;-141.45;100.00
31403;BME280;18039;52.188;21.024;2023-01-09T06:06:39;76568.56;;;-141.45;100.00
31403;BME280;18039;52.188;21.024;2023-01-09T06:09:06;76564.50;;;-141.45;100.00
31403;BME280;18039;52.188;21.024;2023-01-09T06:11:34;76572.63;;;-141.45;100.00
31403;BME280;18039;52.188;21.024;2023-01-09T06:14:01;76548.31;;;-141.45;100.00
31403;BME280;18039;52.188;21.024;2023-01-09T06:16:28;76552.34;;;-141.45;100.00
31403;BME280;18039;52.188;21.024;2023-01-09T06:18:55;76560.47;;;-141.45;100.00
31403;BME280;18039;52.188;21.024;2023-01-09T06:21:23;76552.34;;;-141.45;100.00
31403;BME280;18039;52.188;21.024;2023-01-09T06:23:50;76554.38;;;-141.45;100.00
31403;BME280;18039;52.188;21.024;2023-01-09T06:26:17;76560.47;;;-141.45;100.00
31403;BME280;18039;52.188;21.024;2023-01-09T06:28:44;76566.53;;;-141.45;100.00
31403;BME280;18039;52.188;21.024;2023-01-09T06:31:11;76568.56;;;-141.45;100.00
31403;BME280;18039;52.188;21.024;2023-01-09T06:33:39;76572.63;;;-141.45;100.00
31403;BME280;18039;52.188;21.024;2023-01-09T06:36:07;76584.78;;;-141.45;100.00
31403;BME280;18039;52.188;21.024;2023-01-09T06:38:34;76576.69;;;-141.45;100.00
31403;BME280;18039;52.188;21.024;2023-01-09T06:41:01;76568.56;;;-141.45;100.00
31403;BME280;18039;52.188;21.024;2023-01-09T06:43:28;76564.50;;;-141.45;100.00
31403;BME280;18039;52.188;21.024;2023-01-09T06:45:56;76566.53;;;-141.45;100.00
31403;BME280;18039;52.188;21.024;2023-01-09T06:48:23;76558.44;;;-141.45;100.00
31403;BME280;18039;52.188;21.024;2023-01-09T06:50:51;76558.44;;;-141.45;100.00
31403;BME280;18039;52.188;21.024;2023-01-09T06:53:19;76552.34;;;-141.45;100.00
31403;BME280;18039;52.188;21.024;2023-01-09T06:55:46;76548.31;;;-141.45;100.00
31403;BME280;18039;52.188;21.024;2023-01-09T06:58:14;76548.31;;;-141.45;100.00
31403;BME280;18039;52.188;21.024;2023-01-09T07:00:41;76542.22;;;-141.45;100.00
31403;BME280;18039;52.188;21.024;2023-01-09T07:03:08;76532.09;;;-141.45;100.00
31403;BME280;18039;52.188;21.024;2023-01-09T07:05:39;76528.03;;;-141.45;100.00
31403;BME280;18039;52.188;21.024;2023-01-09T07:08:08;76519.91;;;-141.45;100.00
31403;BME280;18039;52.188;21.024;2023-01-09T07:10:35;76515.88;;;-141.45;100.00
31403;BME280;18039;52.188;21.024;2023-01-09T07:13:02;76528.03;;;-141.45;100.00
31403;BME280;18039;52.188;21.024;2023-01-09T07:15:30;76530.06;;;-141.45;100.00
31403;BME280;18039;52.188;21.024;2023-01-09T07:17:57;76536.13;;;-141.45;100.00
31403;BME280;18039;52.188;21.024;2023-01-09T07:20:24;76532.09;;;-141.45;100.00
31403;BME280;18039;52.188;21.024;2023-01-09T07:22:51;76532.09;;;-141.45;100.00
31403;BME280;18039;52.188;21.024;2023-01-09T07:25:20;76536.13;;;-141.45;100.00
31403;BME280;18039;52.188;21.024;2023-01-09T07:27:48;76523.97;;;-141.45;100.00
31403;BME280;18039;52.188;21.024;2023-01-09T07:30:16;76523.97;;;-141.45;100.00
31403;BME280;18039;52.188;21.024;2023-01-09T07:32:43;76540.19;;;-141.45;100.00
31403;BME280;18039;52.188;21.024;2023-01-09T07:35:11;76540.19;;;-141.45;100.00
31403;BME280;18039;52.188;21.024;2023-01-09T07:37:38;76540.19;;;-141.45;100.00
31403;BME280;18039;52.188;21.024;2023-01-09T07:40:06;76538.16;;;-141.45;100.00
31403;BME280;18039;52.188;21.024;2023-01-09T07:42:33;76526.00;;;-141.45;100.00
31403;BME280;18039;52.188;21.024;2023-01-09T07:45:01;76519.91;;;-141.45;100.00
31403;BME280;18039;52.188;21.024;2023-01-09T07:47:28;76519.91;;;-141.45;100.00
31403;BME280;18039;52.188;21.024;2023-01-09T07:49:55;76511.81;;;-141.45;100.00
31403;BME280;18039;52.188;21.024;2023-01-09T07:52:22;76497.63;;;-141.45;100.00
31403;BME280;18039;52.188;21.024;2023-01-09T07:54:49;76503.69;;;-141.45;100.00
31403;BME280;18039;52.188;21.024;2023-01-09T07:57:16;76501.69;;;-141.45;100.00
31403;BME280;18039;52.188;21.024;2023-01-09T07:59:43;76503.69;;;-141.45;100.00
31403;BME280;18039;52.188;21.024;2023-01-09T08:02:10;76499.66;;;-141.45;100.00
31403;BME280;18039;52.188;21.024;2023-01-09T08:04:38;76499.66;;;-141.45;100.00
31403;BME280;18039;52.188;21.024;2023-01-09T08:07:05;76497.63;;;-141.45;100.00
31403;BME280;18039;52.188;21.024;2023-01-09T08:09:32;76495.59;;;-141.45;100.00
31403;BME280;18039;52.188;21.024;2023-01-09T08:11:59;76495.59;;;-141.45;100.00
31403;BME280;18039;52.188;21.024;2023-01-09T08:14:27;76491.53;;;-141.45;100.00
31403;BME280;18039;52.188;21.024;2023-01-09T08:16:54;76489.50;;;-141.45;100.00
31403;BME280;18039;52.188;21.024;2023-01-09T08:19:21;76475.31;;;-141.45;100.00
31403;BME280;18039;52.188;21.024;2023-01-09T08:21:49;76479.38;;;-141.45;100.00
31403;BME280;18039;52.188;21.024;2023-01-09T08:24:16;76483.44;;;-141.45;100.00
31403;BME280;18039;52.188;21.024;2023-01-09T08:26:43;76479.38;;;-141.45;100.00
31403;BME280;18039;52.188;21.024;2023-01-09T08:29:11;76475.31;;;-141.45;100.00
31403;BME280;18039;52.188;21.024;2023-01-09T08:31:38;76475.31;;;-141.45;100.00
31403;BME280;18039;52.188;21.024;2023-01-09T08:34:05;76471.28;;;-141.45;100.00
31403;BME280;18039;52.188;21.024;2023-01-09T08:36:32;76459.09;;;-141.45;100.00
31403;BME280;18039;52.188;21.024;2023-01-09T08:39:00;76467.22;;;-141.45;100.00
31403;BME280;18039;52.188;21.024;2023-01-09T08:41:26;76473.28;;;-141.45;100.00
31403;BME280;18039;52.188;21.024;2023-01-09T08:44:12;76463.16;;;-141.45;100.00
31403;BME280;18039;52.188;21.024;2023-01-09T08:46:58;76465.19;;;-141.45;100.00
31403;BME280;18039;52.188;21.024;2023-01-09T08:49:35;76461.13;;;-141.45;100.00
31403;BME280;18039;52.188;21.024;2023-01-09T08:52:04;76455.06;;;-141.45;100.00
31403;BME280;18039;52.188;21.024;2023-01-09T08:54:33;76467.22;;;-141.45;100.00
31403;BME280;18039;52.188;21.024;2023-01-09T08:57:02;76463.16;;;-141.45;100.00
31403;BME280;18039;52.188;21.024;2023-01-09T08:59:29;76467.22;;;-141.45;100.00
31403;BME280;18039;52.188;21.024;2023-01-09T09:01:56;76471.28;;;-141.45;100.00
31403;BME280;18039;52.188;21.024;2023-01-09T09:04:24;76459.09;;;-141.45;100.00
31403;BME280;18039;52.188;21.024;2023-01-09T09:06:52;76453.03;;;-141.45;100.00
31403;BME280;18039;52.188;21.024;2023-01-09T09:09:19;76442.91;;;-141.45;100.00
31403;BME280;18039;52.188;21.024;2023-01-09T09:11:46;76434.78;;;-141.45;100.00
31403;BME280;18039;52.188;21.024;2023-01-09T09:14:14;76448.97;;;-141.45;100.00
31403;BME280;18039;52.188;21.024;2023-01-09T09:17:00;76432.75;;;-141.45;100.00
31403;BME280;18039;52.188;21.024;2023-01-09T09:19:27;76422.63;;;-141.45;100.00
31403;BME280;18039;52.188;21.024;2023-01-09T09:21:54;76410.47;;;-141.45;99.88
31403;BME280;18039;52.188;21.024;2023-01-09T09:24:22;76408.44;;;-141.45;99.73
31403;BME280;18039;52.188;21.024;2023-01-09T09:26:49;76394.25;;;-141.45;99.67
31403;BME280;18039;52.188;21.024;2023-01-09T09:29:16;76398.28;;;-141.45;99.70
31403;BME280;18039;52.188;21.024;2023-01-09T09:31:43;76402.34;;;-141.45;100.00
31403;BME280;18039;52.188;21.024;2023-01-09T09:34:11;76400.31;;;-141.45;99.91
31403;BME280;18039;52.188;21.024;2023-01-09T09:36:38;76388.16;;;-141.45;99.85
31403;BME280;18039;52.188;21.024;2023-01-09T09:39:06;76386.13;;;-141.45;99.77
31403;BME280;18039;52.188;21.024;2023-01-09T09:41:51;76382.09;;;-141.45;99.22
31403;BME280;18039;52.188;21.024;2023-01-09T09:50:04;76353.72;;;-141.45;98.84
31403;BME280;18039;52.188;21.024;2023-01-09T09:55:54;76325.31;;;-141.45;98.20
31403;BME280;18039;52.188;21.024;2023-01-09T09:58:43;76321.28;;;-141.45;97.80
31403;BME280;18039;52.188;21.024;2023-01-09T10:01:15;76301.00;;;-141.45;97.84
31403;BME280;18039;52.188;21.024;2023-01-09T10:03:56;76301.00;;;-141.45;97.54
31403;BME280;18039;52.188;21.024;2023-01-09T10:06:30;76313.16;;;-141.45;97.11
31403;BME280;18039;52.188;21.024;2023-01-09T10:14:33;76309.13;;;-141.45;96.99
31403;BME280;18039;52.188;21.024;2023-01-09T10:20:26;76296.94;;;-141.45;97.19
31403;BME280;18039;52.188;21.024;2023-01-09T10:26:01;76290.88;;;-141.45;97.46
31403;BME280;18039;52.188;21.024;2023-01-09T10:34:03;76292.91;;;-141.45;98.21
31403;BME280;18039;52.188;21.024;2023-01-09T10:39:07;76284.78;;;-141.45;99.30
31403;BME280;18039;52.188;21.024;2023-01-09T10:41:48;76276.69;;;-141.45;99.70
31403;BME280;18039;52.188;21.024;2023-01-09T10:44:29;76280.72;;;-141.45;100.00
31403;BME280;18039;52.188;21.024;2023-01-09T10:47:10;76276.69;;;-141.45;100.00
31403;BME280;18039;52.188;21.024;2023-01-09T10:49:41;76276.69;;;-141.45;100.00
31403;BME280;18039;52.188;21.024;2023-01-09T10:54:44;76268.56;;;-141.45;100.00
31403;BME280;18039;52.188;21.024;2023-01-09T10:57:43;76280.72;;;-141.45;100.00
31403;BME280;18039;52.188;21.024;2023-01-09T11:00:17;76284.78;;;-141.45;100.00
31403;BME280;18039;52.188;21.024;2023-01-09T11:02:52;76268.56;;;-141.45;100.00
31403;BME280;18039;52.188;21.024;2023-01-09T11:05:26;76276.69;;;-141.45;100.00
31403;BME280;18039;52.188;21.024;2023-01-09T11:10:52;76280.72;;;-141.45;100.00
31403;BME280;18039;52.188;21.024;2023-01-09T11:13:41;76270.59;;;-141.45;100.00
31403;BME280;18039;52.188;21.024;2023-01-09T11:16:19;76272.63;;;-141.45;100.00
31403;BME280;18039;52.188;21.024;2023-01-09T11:18:52;76272.63;;;-141.45;100.00
31403;BME280;18039;52.188;21.024;2023-01-09T11:21:30;76272.63;;;-141.45;100.00
31403;BME280;18039;52.188;21.024;2023-01-09T11:26:49;76256.41;;;-141.45;100.00
31403;BME280;18039;52.188;21.024;2023-01-09T11:29:19;76256.41;;;-141.45;100.00
31403;BME280;18039;52.188;21.024;2023-01-09T11:31:54;76266.53;;;-141.45;100.00
31403;BME280;18039;52.188;21.024;2023-01-09T11:34:32;76256.41;;;-141.45;100.00
31403;BME280;18039;52.188;21.024;2023-01-09T11:37:05;76256.41;;;-141.45;100.00
31403;BME280;18039;52.188;21.024;2023-01-09T11:39:35;76260.47;;;-141.45;100.00
31403;BME280;18039;52.188;21.024;2023-01-09T11:42:08;76260.47;;;-141.45;100.00
31403;BME280;18039;52.188;21.024;2023-01-09T11:44:45;76260.47;;;-141.45;100.00
31403;BME280;18039;52.188;21.024;2023-01-09T11:47:24;76260.47;;;-141.45;100.00
31403;BME280;18039;52.188;21.024;2023-01-09T11:50:07;76264.53;;;-141.45;100.00
31403;BME280;18039;52.188;21.024;2023-01-09T11:52:36;76266.53;;;-141.45;100.00
31403;BME280;18039;52.188;21.024;2023-01-09T11:55:09;76256.41;;;-141.45;100.00
31403;BME280;18039;52.188;21.024;2023-01-09T11:57:39;76252.34;;;-141.45;100.00
31403;BME280;18039;52.188;21.024;2023-01-09T12:00:25;76246.28;;;-141.45;100.00
31403;BME280;18039;52.188;21.024;2023-01-09T12:08:55;76217.91;;;-141.45;100.00
31403;BME280;18039;52.188;21.024;2023-01-09T12:11:28;76207.78;;;-141.45;100.00
31403;BME280;18039;52.188;21.024;2023-01-09T12:22:32;76195.59;;;-141.45;100.00
31403;BME280;18039;52.188;21.024;2023-01-09T12:27:48;76171.28;;;-141.45;100.00
31403;BME280;18039;52.188;21.024;2023-01-09T12:30:29;76167.22;;;-141.45;100.00
31403;BME280;18039;52.188;21.024;2023-01-09T12:35:45;76163.19;;;-141.45;100.00
31403;BME280;18039;52.188;21.024;2023-01-09T12:38:30;76151.00;;;-141.45;100.00
31403;BME280;18039;52.188;21.024;2023-01-09T12:46:47;76155.06;;;-141.45;100.00
31403;BME280;18039;52.188;21.024;2023-01-09T12:49:25;76151.00;;;-141.45;100.00
31403;BME280;18039;52.188;21.024;2023-01-09T12:52:21;76142.91;;;-141.45;100.00
31403;BME280;18039;52.188;21.024;2023-01-09T12:57:30;76138.84;;;-141.45;100.00
31403;BME280;18039;52.188;21.024;2023-01-09T13:00:21;76128.72;;;-141.45;100.00
31403;BME280;18039;52.188;21.024;2023-01-09T13:05:42;76114.53;;;-141.45;100.00
31403;BME280;18039;52.188;21.024;2023-01-09T13:08:29;76114.53;;;-141.45;100.00
31403;BME280;18039;52.188;21.024;2023-01-09T13:11:05;76106.41;;;-141.45;100.00
31403;BME280;18039;52.188;21.024;2023-01-09T13:16:20;76098.31;;;-141.45;100.00
31403;BME280;18039;52.188;21.024;2023-01-09T13:19:04;76098.31;;;-141.45;100.00
31403;BME280;18039;52.188;21.024;2023-01-09T13:21:33;76102.38;;;-141.45;100.00
31403;BME280;18039;52.188;21.024;2023-01-09T13:24:17;76094.25;;;-141.45;100.00
31403;BME280;18039;52.188;21.024;2023-01-09T13:26:49;76090.22;;;-141.45;100.00
31403;BME280;18039;52.188;21.024;2023-01-09T13:29:33;76078.06;;;-141.45;100.00
31403;BME280;18039;52.188;21.024;2023-01-09T13:34:33;76074.00;;;-141.45;100.00
31403;BME280;18039;52.188;21.024;2023-01-09T13:37:02;76069.94;;;-141.45;100.00
31403;BME280;18039;52.188;21.024;2023-01-09T13:39:31;76065.88;;;-141.45;100.00
31403;BME280;18039;52.188;21.024;2023-01-09T13:42:04;76069.94;;;-141.45;100.00
31403;BME280;18039;52.188;21.024;2023-01-09T13:44:53;76063.88;;;-141.45;100.00
31403;BME280;18039;52.188;21.024;2023-01-09T13:47:26;76059.81;;;-141.45;100.00
31403;BME280;18039;52.188;21.024;2023-01-09T13:50:00;76057.78;;;-141.45;100.00
31403;BME280;18039;52.188;21.024;2023-01-09T13:52:41;76049.69;;;-141.45;100.00
31403;BME280;18039;52.188;21.024;2023-01-09T14:03:28;76045.63;;;-141.45;100.00
31403;BME280;18039;52.188;21.024;2023-01-09T14:08:27;76041.56;;;-141.45;100.00
31403;BME280;18039;52.188;21.024;2023-01-09T14:10:57;76045.63;;;-141.45;100.00
31403;BME280;18039;52.188;21.024;2023-01-09T14:13:29;76037.50;;;-141.45;100.00
31403;BME280;18039;52.188;21.024;2023-01-09T14:16:05;76029.41;;;-141.45;100.00
31403;BME280;18039;52.188;21.024;2023-01-09T14:18:38;76029.41;;;-141.45;100.00
31403;BME280;18039;52.188;21.024;2023-01-09T14:21:12;76029.41;;;-141.45;100.00
31403;BME280;18039;52.188;21.024;2023-01-09T14:26:24;76053.72;;;-141.45;100.00
31403;BME280;18039;52.188;21.024;2023-01-09T14:34:55;76017.25;;;-141.45;100.00
31403;BME280;18039;52.188;21.024;2023-01-09T14:37:25;76021.31;;;-141.45;100.00
31403;BME280;18039;52.188;21.024;2023-01-09T14:39:54;76029.41;;;-141.45;100.00
31403;BME280;18039;52.188;21.024;2023-01-09T14:42:26;76025.34;;;-141.45;100.00